Time;durP1;ratioP1;P1;durP2;ratioP2;P2;SDS_P1;SDS_P2;PMS_P1;PMS_P2;Temp;Humidity;BMP_temperature;BMP_pressure;BME280_temperature;BME280_humidity;BME280_pressure;Samples;Min_cycle;Max_cycle;Signal;HPM_P1;HPM_P2
2023/05/19 00:01:30;;;;;;;9.60;7.90;;;;;;;7.76;100.00;102950.63;5013907;28;21006;-43
2023/05/19 00:04:01;;;;;;;9.50;8.63;;;;;;;7.73;100.00;102956.19;5013178;28;20567;-44
2023/05/19 00:06:32;;;;;;;9.20;8.00;;;;;;;7.74;100.00;102948.06;5014004;28;20527;-43
2023/05/19 00:09:02;;;;;;;9.47;8.40;;;;;;;7.68;100.00;102942.41;5013941;28;20443;-44
2023/05/19 00:11:30;;;;;;;11.03;8.00;;;;;;;7.68;100.00;102945.91;5013668;28;20516;-43
2023/05/19 00:14:00;;;;;;;13.37;7.30;;;;;;;7.69;100.00;102941.44;5013197;28;20527;-45
2023/05/19 00:16:29;;;;;;;8.20;7.07;;;;;;;7.65;100.00;102940.84;5014003;28;20457;-43
2023/05/19 00:18:58;;;;;;;8.87;8.00;;;;;;;7.64;100.00;102946.28;5012916;28;20433;-49
2023/05/19 00:21:26;;;;;;;11.97;8.50;;;;;;;7.55;100.00;102939.06;5013533;28;20465;-44
2023/05/19 00:23:56;;;;;;;12.83;7.67;;;;;;;7.57;100.00;102934.47;5013201;28;20467;-44
2023/05/19 00:26:25;;;;;;;8.30;7.33;;;;;;;7.48;100.00;102928.09;5017253;28;21067;-46
2023/05/19 00:28:53;;;;;;;11.90;7.93;;;;;;;7.46;100.00;102931.84;5033370;28;20432;-44
2023/05/19 00:31:21;;;;;;;12.57;8.50;;;;;;;7.44;100.00;102934.59;5033227;28;20830;-43
2023/05/19 00:33:50;;;;;;;8.10;7.37;;;;;;;7.44;100.00;102936.41;5031522;28;20560;-43
2023/05/19 00:36:18;;;;;;;12.00;8.20;;;;;;;7.46;100.00;102939.81;5033107;28;20779;-46
2023/05/19 00:38:46;;;;;;;7.97;7.27;;;;;;;7.43;100.00;102935.59;5033386;28;20463;-41
2023/05/19 00:41:15;;;;;;;9.30;6.90;;;;;;;7.44;100.00;102934.59;5033178;28;20530;-42
2023/05/19 00:43:43;;;;;;;8.70;8.00;;;;;;;7.44;100.00;102937.25;5032536;28;20559;-43
2023/05/19 00:46:10;;;;;;;10.93;9.10;;;;;;;7.39;100.00;102928.84;5033070;28;20562;-46
2023/05/19 00:48:38;;;;;;;9.73;7.47;;;;;;;7.38;100.00;102935.09;5032877;28;20432;-45
2023/05/19 00:51:06;;;;;;;7.90;6.50;;;;;;;7.38;100.00;102932.44;5033153;28;20439;-43
2023/05/19 00:53:35;;;;;;;8.50;7.70;;;;;;;7.29;100.00;102932.34;5032116;28;20484;-42
2023/05/19 00:56:03;;;;;;;10.73;9.37;;;;;;;7.24;100.00;102927.41;5033020;28;21248;-44
2023/05/19 00:58:33;;;;;;;8.47;7.57;;;;;;;7.22;100.00;102924.88;5032930;28;20849;-45
2023/05/19 01:01:02;;;;;;;10.47;9.17;;;;;;;7.24;100.00;102922.94;5032794;28;20432;-47
2023/05/19 01:03:33;;;;;;;9.47;8.17;;;;;;;7.23;100.00;102921.25;5031992;28;20993;-42
2023/05/19 01:06:03;;;;;;;10.33;8.30;;;;;;;7.30;100.00;102924.25;5032555;28;20440;-44
2023/05/19 01:08:32;;;;;;;11.97;9.77;;;;;;;7.31;100.00;102928.59;5032903;28;20476;-45
2023/05/19 01:11:00;;;;;;;16.00;8.70;;;;;;;7.28;100.00;102926.19;5032584;28;20977;-45
2023/05/19 01:13:28;;;;;;;9.87;8.80;;;;;;;7.35;100.00;102934.53;5031876;28;20525;-44
2023/05/19 01:16:08;;;;;;;8.77;8.07;;;;;;;7.26;100.00;102929.94;5032440;28;20498;-43
2023/05/19 01:18:45;;;;;;;9.97;9.00;;;;;;;7.21;100.00;102925.00;5032736;28;20494;-43
2023/05/19 01:21:36;;;;;;;9.20;8.30;;;;;;;7.16;100.00;102935.13;5032538;28;20921;-43
2023/05/19 01:24:23;;;;;;;10.63;9.10;;;;;;;7.13;100.00;102938.88;5031864;28;20478;-44
2023/05/19 01:27:21;;;;;;;9.40;7.93;;;;;;;7.11;100.00;102930.16;5029028;28;20521;-44
2023/05/19 01:30:15;;;;;;;9.60;8.80;;;;;;;7.14;100.00;102932.59;5023097;28;20437;-42
2023/05/19 01:32:47;;;;;;;15.03;8.13;;;;;;;7.09;100.00;102933.91;5030840;28;20476;-46
2023/05/19 01:35:16;;;;;;;15.23;8.70;;;;;;;7.07;100.00;102933.19;5032460;28;20424;-47
2023/05/19 01:37:44;;;;;;;8.73;7.63;;;;;;;7.09;100.00;102929.47;5032227;28;20483;-45
2023/05/19 01:40:13;;;;;;;9.90;9.00;;;;;;;7.12;100.00;102926.56;5032235;28;20466;-45
2023/05/19 01:42:41;;;;;;;11.40;9.70;;;;;;;7.13;100.00;102927.41;5031162;28;20495;-45
2023/05/19 01:45:10;;;;;;;11.10;9.63;;;;;;;7.12;100.00;102931.88;5031915;28;20918;-42
2023/05/19 01:47:47;;;;;;;11.27;10.10;;;;;;;7.06;100.00;102931.50;5031915;28;20555;-44
2023/05/19 01:50:15;;;;;;;14.23;10.57;;;;;;;7.05;100.00;102933.31;5032381;28;20438;-47
2023/05/19 01:52:42;;;;;;;13.10;9.27;;;;;;;7.05;100.00;102925.34;5031333;28;20531;-43
2023/05/19 01:55:10;;;;;;;11.63;9.93;;;;;;;7.09;100.00;102924.16;5031946;28;20459;-44
2023/05/19 01:57:52;;;;;;;11.63;10.43;;;;;;;7.06;100.00;102927.03;5031797;28;20428;-43
2023/05/19 02:00:31;;;;;;;18.60;10.07;;;;;;;7.03;100.00;102932.59;5032053;28;20421;-44
2023/05/19 02:03:12;;;;;;;14.37;11.70;;;;;;;7.10;100.00;102927.66;5030344;28;20499;-44
2023/05/19 02:05:52;;;;;;;15.27;11.20;;;;;;;7.07;100.00;102928.75;5031874;28;20423;-45
2023/05/19 02:08:25;;;;;;;17.03;11.53;;;;;;;7.08;100.00;102930.41;5031631;28;20518;-44
2023/05/19 02:11:06;;;;;;;16.63;10.37;;;;;;;7.07;100.00;102935.84;5031671;28;20907;-46
2023/05/19 02:13:37;;;;;;;13.47;10.80;;;;;;;7.04;100.00;102933.44;5031145;28;20487;-48
2023/05/19 02:16:06;;;;;;;20.13;12.17;;;;;;;7.02;100.00;102938.00;5031658;28;20858;-44
2023/05/19 02:18:36;;;;;;;11.07;10.00;;;;;;;6.93;100.00;102942.22;5031926;28;20428;-45
2023/05/19 02:21:04;;;;;;;13.00;10.60;;;;;;;6.95;100.00;102929.72;5031518;28;20472;-45
2023/05/19 02:23:31;;;;;;;11.70;10.10;;;;;;;6.91;100.00;102930.91;5031053;28;20546;-44
2023/05/19 02:25:59;;;;;;;11.90;10.70;;;;;;;6.87;100.00;102924.13;5028118;28;20524;-44
2023/05/19 02:28:27;;;;;;;12.80;10.40;;;;;;;6.84;100.00;102929.69;5031443;28;20834;-44
2023/05/19 02:30:55;;;;;;;17.87;12.10;;;;;;;6.78;100.00;102932.81;5031318;28;20468;-45
2023/05/19 02:33:26;;;;;;;11.53;9.90;;;;;;;6.75;100.00;102929.56;5030020;28;20898;-42
2023/05/19 02:35:55;;;;;;;13.23;10.50;;;;;;;6.74;100.00;102920.75;5031497;28;20798;-43
2023/05/19 02:38:23;;;;;;;12.70;11.40;;;;;;;6.80;100.00;102930.91;5031502;28;20432;-42
2023/05/19 02:40:51;;;;;;;12.23;10.53;;;;;;;6.81;100.00;102927.25;5031916;28;20437;-46
2023/05/19 02:43:19;;;;;;;13.17;10.90;;;;;;;6.82;100.00;102928.97;5034382;28;20468;-42
2023/05/19 02:45:47;;;;;;;15.83;10.80;;;;;;;6.77;100.00;102927.63;5035526;28;20479;-43
2023/05/19 02:48:14;;;;;;;12.23;11.13;;;;;;;6.76;100.00;102929.44;5035354;28;20567;-45
2023/05/19 02:50:42;;;;;;;14.33;11.50;;;;;;;6.73;100.00;102926.16;5035410;28;20467;-44
2023/05/19 02:53:11;;;;;;;10.73;9.70;;;;;;;6.71;100.00;102930.75;5034653;28;20550;-44
2023/05/19 02:55:39;;;;;;;11.10;10.03;;;;;;;6.70;100.00;102929.91;5035130;28;20431;-45
2023/05/19 02:58:06;;;;;;;10.20;9.20;;;;;;;6.69;100.00;102923.75;5035066;28;20440;-46
2023/05/19 03:00:34;;;;;;;10.03;8.90;;;;;;;6.67;100.00;102922.19;5035006;28;20963;-47
2023/05/19 03:03:03;;;;;;;11.57;10.50;;;;;;;6.65;100.00;102919.66;5033646;28;20491;-45
2023/05/19 03:05:31;;;;;;;11.00;9.27;;;;;;;6.62;100.00;102934.97;5035141;28;20893;-44
2023/05/19 03:07:59;;;;;;;11.07;10.07;;;;;;;6.60;100.00;102935.06;5034897;28;20482;-44
2023/05/19 03:10:28;;;;;;;13.77;11.07;;;;;;;6.60;100.00;102928.94;5035227;28;20443;-49
2023/05/19 03:12:56;;;;;;;12.50;10.30;;;;;;;6.60;100.00;102924.47;5034420;28;20475;-43
2023/05/19 03:15:23;;;;;;;11.83;10.73;;;;;;;6.57;100.00;102927.34;5034867;28;20466;-43
2023/05/19 03:17:51;;;;;;;11.00;10.10;;;;;;;6.58;100.00;102922.91;5035027;28;20439;-50
2023/05/19 03:20:19;;;;;;;13.20;9.70;;;;;;;6.64;100.00;102925.06;5034809;28;20436;-45
2023/05/19 03:22:47;;;;;;;10.80;9.90;;;;;;;6.70;100.00;102929.91;5033939;28;21001;-42
2023/05/19 03:25:14;;;;;;;13.07;9.80;;;;;;;6.78;100.00;102931.97;5034923;28;20436;-44
2023/05/19 03:27:43;;;;;;;13.60;11.03;;;;;;;6.82;100.00;102936.91;5031137;28;20476;-46
2023/05/19 03:30:12;;;;;;;12.60;10.70;;;;;;;6.93;100.00;102934.25;5034659;28;20523;-44
2023/05/19 03:32:41;;;;;;;10.17;9.13;;;;;;;6.96;100.00;102941.16;5031334;28;20483;-45
2023/05/19 03:35:09;;;;;;;12.70;11.23;;;;;;;7.04;100.00;102934.28;5034416;28;20489;-44
2023/05/19 03:37:36;;;;;;;11.37;10.27;;;;;;;7.12;100.00;102937.19;5034352;28;20478;-44
2023/05/19 03:40:06;;;;;;;13.30;10.23;;;;;;;7.23;100.00;102937.16;5034442;28;20977;-44
2023/05/19 03:42:33;;;;;;;10.03;9.13;;;;;;;7.34;100.00;102948.75;5033676;28;20464;-44
2023/05/19 03:45:03;;;;;;;10.20;9.30;;;;;;;7.41;100.00;102942.81;5034350;28;20507;-44
2023/05/19 03:47:31;;;;;;;10.03;9.03;;;;;;;7.50;100.00;102949.19;5034281;28;20529;-42
2023/05/19 03:49:59;;;;;;;11.50;9.47;;;;;;;7.65;100.00;102946.16;5034255;28;20498;-44
2023/05/19 03:52:26;;;;;;;11.53;10.10;;;;;;;7.70;100.00;102949.31;5032401;28;20460;-49
2023/05/19 03:54:54;;;;;;;10.47;9.40;;;;;;;7.78;100.00;102948.66;5034121;28;20450;-45
2023/05/19 03:57:22;;;;;;;15.50;10.63;;;;;;;7.90;100.00;102949.47;5034043;28;20428;-43
2023/05/19 03:59:50;;;;;;;12.00;9.60;;;;;;;8.01;100.00;102955.59;5034065;28;20804;-45
2023/05/19 04:02:19;;;;;;;11.97;9.30;;;;;;;8.13;100.00;102943.94;5032375;28;20499;-44
2023/05/19 04:04:46;;;;;;;9.50;8.70;;;;;;;8.30;100.00;102940.75;5034181;28;20432;-47
2023/05/19 04:07:14;;;;;;;12.63;9.70;;;;;;;8.41;100.00;102937.22;5034145;28;20428;-46
2023/05/19 04:09:42;;;;;;;9.90;9.20;;;;;;;8.57;100.00;102942.91;5033873;28;20530;-46
2023/05/19 04:12:10;;;;;;;9.73;8.93;;;;;;;8.73;100.00;102947.78;5032988;28;20953;-43
2023/05/19 04:14:37;;;;;;;8.23;7.53;;;;;;;8.95;100.00;102938.78;5033692;28;20442;-42
2023/05/19 04:17:05;;;;;;;8.80;7.93;;;;;;;9.20;100.00;102938.38;5033762;28;20766;-46
2023/05/19 04:19:34;;;;;;;9.27;8.30;;;;;;;9.40;100.00;102945.44;5033901;28;20429;-44
2023/05/19 04:22:01;;;;;;;8.77;7.87;;;;;;;9.77;100.00;102943.81;5033061;28;20451;-43
2023/05/19 04:24:29;;;;;;;7.80;7.00;;;;;;;10.41;100.00;102948.66;5033593;28;20436;-43
2023/05/19 04:27:01;;;;;;;9.10;7.53;;;;;;;10.89;100.00;102946.75;5029971;28;20862;-43
2023/05/19 04:29:29;;;;;;;8.23;6.87;;;;;;;11.47;100.00;102944.66;5033106;28;20474;-41
2023/05/19 04:31:56;;;;;;;7.77;7.03;;;;;;;11.92;100.00;102941.16;5032085;28;20436;-42
2023/05/19 04:34:24;;;;;;;7.87;6.47;;;;;;;12.91;100.00;102939.94;5033410;28;20517;-44
2023/05/19 04:36:54;;;;;;;6.33;5.73;;;;;;;14.17;100.00;102938.88;5033340;28;20603;-43
2023/05/19 04:39:21;;;;;;;6.57;5.80;;;;;;;15.33;100.00;102941.06;5033154;28;20451;-43
2023/05/19 04:41:49;;;;;;;9.17;5.70;;;;;;;16.10;100.00;102925.81;5032413;28;20467;-42
2023/05/19 04:44:18;;;;;;;5.93;5.33;;;;;;;16.98;100.00;102924.19;5032835;28;20921;-42
2023/05/19 04:46:45;;;;;;;9.03;5.33;;;;;;;18.05;100.00;102918.00;5033373;28;20436;-44
2023/05/19 04:49:13;;;;;;;8.30;5.73;;;;;;;18.82;100.00;102912.59;5033022;28;20474;-40
2023/05/19 04:51:41;;;;;;;5.27;4.80;;;;;;;19.49;99.42;102911.94;5032973;28;20428;-42
2023/05/19 04:54:10;;;;;;;7.97;5.43;;;;;;;19.85;92.07;102901.63;5032468;28;20470;-44
2023/05/19 04:56:38;;;;;;;5.50;5.00;;;;;;;20.01;87.17;102906.63;5032687;28;20440;-41
2023/05/19 04:59:05;;;;;;;8.07;5.77;;;;;;;20.23;78.27;102910.81;5033110;28;20462;-42
2023/05/19 05:01:33;;;;;;;6.20;5.37;;;;;;;20.71;76.12;102922.28;5032784;28;20438;-45
2023/05/19 05:04:01;;;;;;;6.87;4.60;;;;;;;21.21;77.44;102917.16;5030644;28;20467;-43
2023/05/19 05:06:30;;;;;;;6.10;5.30;;;;;;;21.27;72.26;102927.16;5032641;28;21010;-42
2023/05/19 05:08:58;;;;;;;10.57;5.17;;;;;;;21.15;66.15;102924.28;5032654;28;20530;-43
2023/05/19 05:11:28;;;;;;;9.70;5.20;;;;;;;21.05;56.57;102923.88;5031179;28;20932;-43
2023/05/19 05:13:56;;;;;;;5.57;4.83;;;;;;;20.86;60.53;102927.47;5031988;28;20491;-44
2023/05/19 05:16:25;;;;;;;6.17;5.57;;;;;;;20.95;61.59;102927.03;5032589;28;20478;-46
2023/05/19 05:18:54;;;;;;;7.67;5.03;;;;;;;20.89;60.37;102918.91;5032647;28;20427;-45
2023/05/19 05:21:23;;;;;;;6.63;4.83;;;;;;;20.71;58.50;102924.16;5031448;28;20823;-45
2023/05/19 05:23:51;;;;;;;9.23;6.27;;;;;;;20.01;60.32;102931.00;5031897;28;20468;-46
2023/05/19 05:26:21;;;;;;;6.73;5.00;;;;;;;19.40;59.35;102924.81;5028588;28;20431;-44
2023/05/19 05:28:50;;;;;;;6.93;5.30;;;;;;;19.03;60.09;102917.09;5032082;28;20477;-46
2023/05/19 05:31:18;;;;;;;7.43;4.97;;;;;;;18.29;58.82;102924.88;5032112;28;20972;-44
2023/05/19 05:33:46;;;;;;;11.67;5.20;;;;;;;17.77;58.83;102927.88;5016834;28;20519;-43
2023/05/19 05:36:14;;;;;;;6.10;4.80;;;;;;;17.11;62.20;102931.63;4989610;28;20491;-40
2023/05/19 05:38:42;;;;;;;6.33;5.70;;;;;;;16.71;63.50;102935.59;5011805;28;20460;-42
2023/05/19 05:41:10;;;;;;;7.80;5.97;;;;;;;16.37;66.01;102937.88;5011254;28;20535;-40
2023/05/19 05:43:39;;;;;;;8.20;5.30;;;;;;;16.12;68.16;102942.66;5011880;28;20564;-41
2023/05/19 05:46:08;;;;;;;6.47;5.63;;;;;;;15.84;71.57;102946.88;5012167;28;20447;-41
2023/05/19 05:48:36;;;;;;;5.27;4.77;;;;;;;15.59;71.00;102939.97;5006016;28;20472;-42
2023/05/19 05:51:05;;;;;;;7.57;5.83;;;;;;;15.46;75.35;102946.72;5011774;28;20441;-42
2023/05/19 05:53:38;;;;;;;8.27;5.10;;;;;;;15.46;77.31;102943.19;5012034;28;20464;-44
2023/05/19 05:56:07;;;;;;;9.87;5.50;;;;;;;15.50;77.35;102941.88;5012394;28;20802;-44
2023/05/19 05:58:36;;;;;;;8.00;5.90;;;;;;;15.59;77.81;102942.66;5011666;28;20465;-44
2023/05/19 06:01:04;;;;;;;6.87;5.20;;;;;;;15.65;78.55;102939.25;5012090;28;20424;-42
2023/05/19 06:03:33;;;;;;;6.77;6.10;;;;;;;15.39;72.23;102936.81;5011592;28;20811;-41
2023/05/19 06:06:02;;;;;;;11.63;5.73;;;;;;;15.31;73.05;102940.41;5011916;28;20445;-41
2023/05/19 06:08:30;;;;;;;5.80;5.30;;;;;;;15.24;73.61;102941.25;5011485;28;20456;-41
2023/05/19 06:10:57;;;;;;;8.47;5.07;;;;;;;15.22;74.29;102945.97;5011812;28;20469;-41
2023/05/19 06:13:25;;;;;;;5.73;4.70;;;;;;;15.02;71.13;102947.38;5011750;28;20484;-42
2023/05/19 06:15:53;;;;;;;6.70;4.93;;;;;;;14.89;71.87;102948.75;5010941;28;20443;-46
2023/05/19 06:18:21;;;;;;;10.57;5.57;;;;;;;14.81;70.57;102953.31;5007612;28;20476;-42
2023/05/19 06:20:50;;;;;;;11.47;5.37;;;;;;;14.85;72.18;102951.94;5011706;28;20487;-41
2023/05/19 06:23:17;;;;;;;5.20;4.50;;;;;;;14.83;73.18;102954.81;5011532;28;20464;-46
2023/05/19 06:25:45;;;;;;;10.13;5.07;;;;;;;15.01;77.45;102951.06;5009495;28;20455;-43
2023/05/19 06:28:13;;;;;;;8.00;5.30;;;;;;;15.12;76.22;102954.22;5023009;28;20449;-43
2023/05/19 06:30:41;;;;;;;6.17;4.17;;;;;;;15.17;73.93;102954.53;5030557;28;20494;-46
2023/05/19 06:33:08;;;;;;;10.63;4.50;;;;;;;15.12;73.32;102956.06;5030201;28;20453;-43
2023/05/19 06:35:36;;;;;;;7.13;4.83;;;;;;;15.13;73.31;102953.22;5029884;28;21201;-42
2023/05/19 06:38:05;;;;;;;6.93;4.30;;;;;;;15.16;71.84;102952.03;5011611;28;20465;-48
2023/05/19 06:40:33;;;;;;;6.63;4.50;;;;;;;15.18;72.39;102958.06;5011431;28;20429;-46
2023/05/19 06:43:01;;;;;;;5.93;5.13;;;;;;;15.24;72.29;102952.84;5010919;28;20834;-43
2023/05/19 06:45:29;;;;;;;6.73;4.73;;;;;;;15.12;69.88;102956.91;5010423;28;20795;-42
2023/05/19 06:47:58;;;;;;;8.10;4.17;;;;;;;15.19;69.61;102959.75;5007253;28;20471;-43
2023/05/19 06:50:26;;;;;;;12.23;5.03;;;;;;;15.14;70.96;102954.88;5011622;28;20473;-41
2023/05/19 06:52:54;;;;;;;11.37;4.40;;;;;;;15.27;70.11;102955.19;5011139;28;20456;-41
2023/05/19 06:55:23;;;;;;;4.93;4.27;;;;;;;15.27;66.96;102952.50;5011367;28;20457;-46
2023/05/19 06:57:51;;;;;;;5.37;3.70;;;;;;;15.27;67.14;102960.56;5011113;28;20858;-41
2023/05/19 07:00:19;;;;;;;11.27;4.53;;;;;;;15.23;65.02;102956.53;5011632;28;20436;-44
2023/05/19 07:02:50;;;;;;;9.13;4.23;;;;;;;15.24;67.42;102957.38;5011411;28;20826;-43
2023/05/19 07:05:18;;;;;;;9.00;4.60;;;;;;;15.30;66.11;102959.38;5011452;28;20795;-43
2023/05/19 07:07:46;;;;;;;8.17;4.10;;;;;;;15.55;68.61;102963.69;5006364;28;20490;-43
2023/05/19 07:10:14;;;;;;;5.33;4.10;;;;;;;15.53;68.39;102965.69;5011414;28;20476;-41
2023/05/19 07:12:43;;;;;;;7.47;5.17;;;;;;;15.67;68.50;102966.81;5011165;28;20448;-42
2023/05/19 07:15:11;;;;;;;6.27;4.27;;;;;;;15.72;65.34;102972.50;5011461;28;20467;-43
2023/05/19 07:17:39;;;;;;;4.83;3.73;;;;;;;15.46;64.27;102970.06;5011002;28;20461;-43
2023/05/19 07:20:08;;;;;;;6.00;3.77;;;;;;;15.53;67.25;102971.06;5011673;28;20433;-43
2023/05/19 07:22:38;;;;;;;6.67;4.10;;;;;;;15.66;67.84;102971.34;5011219;28;20493;-43
2023/05/19 07:25:07;;;;;;;6.60;4.80;;;;;;;15.62;69.12;102974.59;5011425;28;20435;-41
2023/05/19 07:27:34;;;;;;;4.90;4.20;;;;;;;15.47;70.17;102977.16;5017582;28;20452;-43
2023/05/19 07:30:04;;;;;;;5.23;4.70;;;;;;;15.25;69.69;102969.81;5034522;28;20606;-41
2023/05/19 07:32:32;;;;;;;9.87;5.00;;;;;;;15.22;70.63;102968.31;5034337;28;20444;-44
2023/05/19 07:35:01;;;;;;;5.23;4.80;;;;;;;15.25;72.00;102967.13;5034418;28;20490;-43
2023/05/19 07:37:29;;;;;;;6.33;4.60;;;;;;;15.50;73.22;102958.81;5033288;28;20455;-44
2023/05/19 07:39:58;;;;;;;8.80;5.53;;;;;;;15.41;72.72;102969.78;5034470;28;20470;-43
2023/05/19 07:42:25;;;;;;;8.07;5.47;;;;;;;15.58;71.09;102968.72;5034107;28;20460;-43
2023/05/19 07:44:53;;;;;;;5.67;4.87;;;;;;;15.49;72.04;102967.06;5034320;28;20420;-43
2023/05/19 07:47:22;;;;;;;9.17;5.57;;;;;;;15.40;71.63;102968.94;5033628;28;20436;-47
2023/05/19 07:49:50;;;;;;;7.43;4.90;;;;;;;15.69;70.90;102965.63;5033979;28;20436;-41
2023/05/19 07:52:18;;;;;;;5.40;4.90;;;;;;;15.89;72.82;102974.91;5033974;28;20486;-43
2023/05/19 07:54:46;;;;;;;8.80;5.50;;;;;;;15.92;71.29;102962.94;5034252;28;20494;-45
2023/05/19 07:57:14;;;;;;;4.97;4.43;;;;;;;16.00;71.00;102962.91;5033819;28;20448;-44
2023/05/19 07:59:42;;;;;;;6.03;4.70;;;;;;;16.17;71.35;102969.00;5034080;28;20976;-41
2023/05/19 08:02:09;;;;;;;6.67;5.00;;;;;;;16.48;69.63;102959.84;5033622;28;20863;-43
2023/05/19 08:04:38;;;;;;;5.70;5.00;;;;;;;16.59;68.27;102964.81;5034154;28;20526;-44
2023/05/19 08:07:06;;;;;;;5.90;5.03;;;;;;;16.50;67.29;102962.34;5034239;28;20507;-43
2023/05/19 08:09:34;;;;;;;6.13;5.53;;;;;;;16.35;66.31;102962.31;5033047;28;20887;-43
2023/05/19 08:12:03;;;;;;;9.37;4.37;;;;;;;16.43;66.21;102958.69;5033370;28;21023;-41
2023/05/19 08:14:33;;;;;;;6.80;4.53;;;;;;;16.37;68.26;102960.25;5033457;28;20965;-43
2023/05/19 08:17:01;;;;;;;8.10;4.73;;;;;;;16.54;70.09;102950.25;5034056;28;20834;-43
2023/05/19 08:19:29;;;;;;;8.93;5.27;;;;;;;16.64;68.30;102950.78;5025685;28;21058;-43
2023/05/19 08:21:59;;;;;;;10.57;4.70;;;;;;;16.49;66.42;102945.34;5033225;28;20467;-44
2023/05/19 08:24:28;;;;;;;6.13;5.00;;;;;;;16.41;70.61;102955.34;5033618;28;20439;-41
2023/05/19 08:26:56;;;;;;;10.10;5.60;;;;;;;16.42;71.72;102957.03;5030005;28;20427;-42
2023/05/19 08:29:24;;;;;;;5.20;4.80;;;;;;;16.78;69.76;102952.69;5033009;28;20468;-45
2023/05/19 08:31:52;;;;;;;11.10;5.47;;;;;;;16.66;68.67;102958.72;5033190;28;20501;-42
2023/05/19 08:34:21;;;;;;;10.73;5.70;;;;;;;16.32;69.16;102961.81;5033343;28;20444;-41
2023/05/19 08:36:48;;;;;;;11.97;5.23;;;;;;;16.84;67.95;102954.66;5033338;28;20470;-43
2023/05/19 08:39:22;;;;;;;5.80;5.30;;;;;;;17.23;67.03;102953.56;5031981;28;20468;-46
2023/05/19 08:41:50;;;;;;;6.93;5.40;;;;;;;17.09;65.48;102944.41;5033131;28;20578;-46
2023/05/19 08:44:18;;;;;;;7.80;4.87;;;;;;;17.23;67.18;102940.06;5033055;28;20450;-43
2023/05/19 08:46:47;;;;;;;7.47;5.13;;;;;;;17.32;64.63;102937.09;5033227;28;20779;-46
2023/05/19 08:49:22;;;;;;;5.43;4.70;;;;;;;16.47;68.29;102935.78;5032748;28;21003;-44
2023/05/19 08:51:58;;;;;;;6.70;5.00;;;;;;;16.98;67.35;102937.66;5032686;28;20900;-45
2023/05/19 08:54:32;;;;;;;6.03;5.20;;;;;;;17.15;68.55;102932.91;5033281;28;20523;-45
2023/05/19 08:57:01;;;;;;;7.47;5.47;;;;;;;17.44;64.64;102940.13;5033015;28;20424;-47
2023/05/19 08:59:29;;;;;;;10.33;5.10;;;;;;;17.04;64.78;102942.31;5032629;28;20816;-42
2023/05/19 09:01:57;;;;;;;5.37;4.87;;;;;;;16.66;66.95;102929.91;5032650;28;20434;-44
2023/05/19 09:04:26;;;;;;;7.77;5.00;;;;;;;16.84;67.86;102934.94;5032849;28;20474;-47
2023/05/19 09:06:57;;;;;;;8.53;4.93;;;;;;;17.06;70.24;102925.94;5032966;28;20436;-43
2023/05/19 09:09:26;;;;;;;8.13;5.37;;;;;;;17.26;66.13;102931.59;5026917;28;20464;-45
2023/05/19 09:11:54;;;;;;;5.47;4.47;;;;;;;17.02;68.13;102928.16;5032471;28;20910;-45
2023/05/19 09:14:22;;;;;;;6.60;5.50;;;;;;;17.45;67.94;102920.22;5032783;28;20523;-44
2023/05/19 09:16:51;;;;;;;8.33;4.87;;;;;;;17.55;66.98;102927.03;5032616;28;20431;-43
2023/05/19 09:19:20;;;;;;;6.43;4.57;;;;;;;17.48;66.83;102919.84;5023308;28;20490;-44
2023/05/19 09:21:58;;;;;;;11.33;4.80;;;;;;;17.53;67.97;102925.50;5032238;28;20859;-43
2023/05/19 09:24:28;;;;;;;7.20;4.77;;;;;;;17.60;66.27;102924.59;5032469;28;20531;-48
2023/05/19 09:26:56;;;;;;;7.30;4.83;;;;;;;17.54;65.70;102922.66;5029281;28;20428;-43
2023/05/19 09:29:26;;;;;;;8.23;5.20;;;;;;;17.53;67.16;102918.22;5031780;28;20459;-43
2023/05/19 09:31:59;;;;;;;11.10;5.00;;;;;;;16.91;67.16;102914.31;5032128;28;20478;-46
2023/05/19 09:34:27;;;;;;;9.33;5.87;;;;;;;16.63;72.59;102914.13;5032389;28;20455;-41
2023/05/19 09:36:56;;;;;;;7.97;4.93;;;;;;;16.89;72.21;102910.97;5031991;28;20436;-45
2023/05/19 09:39:24;;;;;;;8.43;5.63;;;;;;;17.38;67.76;102909.34;5031462;28;20467;-46
2023/05/19 09:41:55;;;;;;;6.67;5.00;;;;;;;17.81;64.63;102904.88;5031557;28;20507;-43
2023/05/19 09:44:23;;;;;;;5.90;5.20;;;;;;;18.29;60.82;102905.97;5031958;28;20446;-43
2023/05/19 09:46:51;;;;;;;10.80;5.83;;;;;;;18.53;57.89;102912.81;5032026;28;20439;-46
2023/05/19 09:49:21;;;;;;;13.23;5.03;;;;;;;18.14;56.99;102913.31;5028657;28;20448;-45
2023/05/19 09:51:50;;;;;;;6.67;5.00;;;;;;;17.99;57.01;102912.53;5031801;28;20992;-49
2023/05/19 09:54:20;;;;;;;7.60;5.13;;;;;;;18.30;57.99;102912.19;5031898;28;20991;-46
2023/05/19 09:56:51;;;;;;;11.87;7.73;;;;;;;18.46;56.12;102914.59;5031886;28;20463;-42
2023/05/19 09:59:24;;;;;;;7.50;5.30;;;;;;;18.55;56.18;102916.16;5027506;28;20787;-43
2023/05/19 10:01:54;;;;;;;8.40;4.97;;;;;;;18.72;52.83;102910.28;5031597;28;20420;-42
2023/05/19 10:04:23;;;;;;;6.33;4.73;;;;;;;18.27;51.92;102916.13;5031662;28;20956;-45
2023/05/19 10:06:53;;;;;;;7.83;5.27;;;;;;;18.44;53.76;102909.41;5031744;28;20518;-43
2023/05/19 10:09:23;;;;;;;8.60;5.10;;;;;;;18.16;53.30;102911.22;5031253;28;20540;-45
2023/05/19 10:11:53;;;;;;;9.00;5.93;;;;;;;18.44;52.90;102912.09;5031504;28;20467;-44
2023/05/19 10:14:24;;;;;;;6.67;5.30;;;;;;;18.40;51.50;102907.31;5031254;28;20494;-41
2023/05/19 10:16:54;;;;;;;9.30;5.17;;;;;;;18.03;53.27;102914.66;5031859;28;20432;-41
2023/05/19 10:19:23;;;;;;;7.60;4.60;;;;;;;18.18;52.84;102907.34;5031051;28;20455;-43
2023/05/19 10:21:52;;;;;;;9.20;4.87;;;;;;;18.30;52.59;102901.41;5016408;28;20441;-48
2023/05/19 10:24:20;;;;;;;6.37;5.23;;;;;;;18.27;53.63;102894.53;5012283;28;20420;-47
2023/05/19 10:26:53;;;;;;;8.30;5.10;;;;;;;18.40;53.80;102901.91;5018201;28;20790;-43
2023/05/19 10:29:33;;;;;;;8.90;5.33;;;;;;;18.47;52.93;102903.63;5014815;28;20821;-45
2023/05/19 10:32:04;;;;;;;8.03;6.17;;;;;;;17.66;53.70;102904.94;5030946;28;20843;-43
2023/05/19 10:35:07;;;;;;;8.40;5.70;;;;;;;17.78;54.24;102902.56;5031612;28;20435;-47
2023/05/19 10:37:44;;;;;;;10.77;5.93;;;;;;;17.77;52.76;102902.78;5021145;28;20522;-43
2023/05/19 10:40:20;;;;;;;5.00;4.53;;;;;;;17.71;52.99;102912.47;5031230;28;20459;-45
2023/05/19 10:43:02;;;;;;;8.80;4.53;;;;;;;17.62;52.51;102900.13;5030485;28;20487;-43
2023/05/19 10:45:36;;;;;;;5.53;5.00;;;;;;;17.58;55.35;102901.53;5031919;28;20486;-47
2023/05/19 10:48:04;;;;;;;5.93;5.43;;;;;;;17.51;53.96;102897.88;5031610;28;20511;-47
2023/05/19 10:50:36;;;;;;;7.87;5.43;;;;;;;17.38;55.64;102903.13;5031082;28;20860;-44
2023/05/19 10:53:04;;;;;;;8.10;5.40;;;;;;;17.36;56.32;102897.91;5031149;28;20507;-47
2023/05/19 10:55:46;;;;;;;7.70;5.67;;;;;;;17.29;54.94;102902.41;5031552;28;20446;-43
2023/05/19 10:58:14;;;;;;;11.40;5.73;;;;;;;17.28;56.66;102895.34;5031428;28;20471;-42
2023/05/19 11:00:43;;;;;;;8.97;5.27;;;;;;;17.05;58.66;102897.31;5030957;28;20464;-44
2023/05/19 11:03:14;;;;;;;8.60;4.90;;;;;;;17.46;57.08;102886.81;5033662;28;20448;-45
2023/05/19 11:05:44;;;;;;;8.20;5.10;;;;;;;17.80;56.37;102887.00;5035343;28;20478;-46
2023/05/19 11:08:12;;;;;;;7.17;5.40;;;;;;;17.54;55.01;102884.00;5034258;28;20763;-44
2023/05/19 11:10:44;;;;;;;8.10;6.00;;;;;;;17.66;53.29;102890.59;5034621;28;20516;-45
2023/05/19 11:13:20;;;;;;;5.50;4.87;;;;;;;17.56;56.15;102885.50;5034629;28;20514;-46
2023/05/19 11:15:51;;;;;;;5.87;4.97;;;;;;;17.49;55.15;102886.44;5035005;28;20435;-43
2023/05/19 11:18:20;;;;;;;9.27;5.00;;;;;;;17.51;53.93;102887.09;5035034;28;20424;-43
2023/05/19 11:20:57;;;;;;;11.63;5.10;;;;;;;17.41;53.04;102883.88;5011785;28;20466;-45
2023/05/19 11:23:25;;;;;;;8.13;5.20;;;;;;;17.47;53.44;102885.81;5034310;28;20501;-43
2023/05/19 11:25:53;;;;;;;5.87;5.20;;;;;;;17.50;53.51;102891.63;5031670;28;20440;-46
2023/05/19 11:28:24;;;;;;;7.30;5.13;;;;;;;17.50;52.83;102870.06;5018239;28;20428;-41
2023/05/19 11:30:56;;;;;;;6.70;4.77;;;;;;;17.51;52.53;102879.00;5034074;28;20533;-41
2023/05/19 11:33:25;;;;;;;5.40;4.90;;;;;;;17.54;52.28;102895.66;5034273;28;20476;-43